Private Wetterstation Sandau
Wetterdaten: Samstag, 23.06.2012
Datum Zeit Temp. A. Feuchte A. Luftdruck Regen Wind Richtung Richtung Taupunkt Windchill
23.06.2012 00:01 17,3 C 58 % 1020,3 hPa 0,0 l/m 3,2 km/h (1 Bft) S 180 9,0 C 17,3 C
23.06.2012 00:06 17,1 C 59 % 1020,2 hPa 0,0 l/m 2,5 km/h (1 Bft) S-SO 157 9,0 C 17,1 C
23.06.2012 00:11 17,1 C 59 % 1020,3 hPa 0,0 l/m 0,0 km/h (0 Bft) S 180 9,0 C 17,1 C
23.06.2012 00:16 17,0 C 59 % 1020,3 hPa 0,0 l/m 3,2 km/h (1 Bft) W-SW 247 8,9 C 17,0 C
23.06.2012 00:21 16,9 C 60 % 1020,2 hPa 0,0 l/m 2,9 km/h (1 Bft) W-SW 247 9,1 C 16,9 C
23.06.2012 00:26 16,9 C 60 % 1020,2 hPa 0,0 l/m 7,6 km/h (2 Bft) W-SW 247 9,1 C 16,9 C
23.06.2012 00:31 16,8 C 60 % 1020,3 hPa 0,0 l/m 8,6 km/h (2 Bft) SW 225 9,0 C 16,8 C
23.06.2012 00:36 16,8 C 60 % 1020,3 hPa 0,0 l/m 2,9 km/h (1 Bft) SW 225 9,0 C 16,8 C
23.06.2012 00:41 16,8 C 60 % 1020,3 hPa 0,0 l/m 1,1 km/h (1 Bft) SW 225 9,0 C 16,8 C
23.06.2012 00:46 16,8 C 60 % 1020,5 hPa 0,0 l/m 0,0 km/h (0 Bft) W-SW 247 9,0 C 16,8 C
23.06.2012 00:51 16,7 C 60 % 1020,3 hPa 0,0 l/m 4,0 km/h (1 Bft) W-SW 247 8,9 C 16,7 C
23.06.2012 00:56 16,6 C 60 % 1020,4 hPa 0,0 l/m 2,5 km/h (1 Bft) SW 225 8,8 C 16,6 C
23.06.2012 01:01 16,6 C 60 % 1020,5 hPa 0,0 l/m 4,0 km/h (1 Bft) S-SW 202 8,8 C 16,6 C
23.06.2012 01:06 16,5 C 61 % 1020,4 hPa 0,0 l/m 3,6 km/h (1 Bft) S 180 9,0 C 16,5 C
23.06.2012 01:11 16,4 C 61 % 1020,4 hPa 0,0 l/m 2,5 km/h (1 Bft) S-SW 202 8,9 C 16,4 C
23.06.2012 01:16 16,4 C 61 % 1020,6 hPa 0,0 l/m 0,0 km/h (0 Bft) W 270 8,9 C 16,4 C
23.06.2012 01:21 16,3 C 61 % 1020,5 hPa 0,0 l/m 4,0 km/h (1 Bft) SW 225 8,8 C 16,3 C
23.06.2012 01:26 16,3 C 62 % 1020,5 hPa 0,0 l/m 4,7 km/h (1 Bft) W-SW 247 9,0 C 16,3 C
23.06.2012 01:31 16,3 C 62 % 1020,5 hPa 0,0 l/m 4,0 km/h (1 Bft) S-SW 202 9,0 C 16,3 C
23.06.2012 01:36 16,3 C 62 % 1020,5 hPa 0,0 l/m 2,2 km/h (1 Bft) S-SO 157 9,0 C 16,3 C
23.06.2012 01:41 16,3 C 62 % 1020,5 hPa 0,0 l/m 2,2 km/h (1 Bft) S 180 9,0 C 16,3 C
23.06.2012 01:46 16,3 C 62 % 1020,5 hPa 0,0 l/m 2,2 km/h (1 Bft) S-SO 157 9,0 C 16,3 C
23.06.2012 01:51 16,3 C 62 % 1020,5 hPa 0,0 l/m 4,3 km/h (1 Bft) S-SW 202 9,0 C 16,3 C
23.06.2012 01:56 16,2 C 63 % 1020,6 hPa 0,0 l/m 3,6 km/h (1 Bft) W 270 9,1 C 16,2 C
23.06.2012 02:01 16,1 C 63 % 1020,8 hPa 0,0 l/m 13,7 km/h (3 Bft) W-NW 292 9,1 C 16,1 C
23.06.2012 02:06 16,1 C 63 % 1020,9 hPa 0,0 l/m 11,5 km/h (2 Bft) W-SW 247 9,1 C 16,1 C
23.06.2012 02:11 16,0 C 64 % 1020,7 hPa 0,0 l/m 6,5 km/h (2 Bft) W 270 9,2 C 16,0 C
23.06.2012 02:16 15,9 C 64 % 1020,9 hPa 0,0 l/m 7,6 km/h (2 Bft) W 270 9,1 C 15,9 C
23.06.2012 02:21 15,8 C 64 % 1020,9 hPa 0,0 l/m 5,8 km/h (2 Bft) W-SW 247 9,0 C 15,8 C
23.06.2012 02:26 15,8 C 65 % 1021,0 hPa 0,0 l/m 4,0 km/h (1 Bft) W-SW 247 9,2 C 15,8 C
23.06.2012 02:31 15,6 C 65 % 1020,9 hPa 0,0 l/m 7,9 km/h (2 Bft) W-SW 247 9,0 C 15,6 C
23.06.2012 02:36 15,5 C 66 % 1020,8 hPa 0,0 l/m 8,3 km/h (2 Bft) W-SW 247 9,2 C 15,5 C
23.06.2012 02:41 15,4 C 65 % 1020,8 hPa 0,0 l/m 5,8 km/h (2 Bft) W-SW 247 8,9 C 15,4 C
23.06.2012 02:46 15,3 C 66 % 1020,8 hPa 0,0 l/m 3,2 km/h (1 Bft) W-SW 247 9,0 C 15,3 C
23.06.2012 02:51 15,3 C 66 % 1020,7 hPa 0,0 l/m 2,2 km/h (1 Bft) SW 225 9,0 C 15,3 C
23.06.2012 02:56 15,3 C 66 % 1020,7 hPa 0,0 l/m 4,0 km/h (1 Bft) W-SW 247 9,0 C 15,3 C
23.06.2012 03:01 15,3 C 66 % 1020,8 hPa 0,0 l/m 4,3 km/h (1 Bft) SW 225 9,0 C 15,3 C
23.06.2012 03:06 15,2 C 66 % 1020,8 hPa 0,0 l/m 4,7 km/h (1 Bft) SW 225 8,9 C 15,2 C
23.06.2012 03:11 15,2 C 66 % 1020,9 hPa 0,0 l/m 6,1 km/h (2 Bft) W-SW 247 8,9 C 15,2 C
23.06.2012 03:16 15,0 C 67 % 1020,8 hPa 0,0 l/m 1,8 km/h (1 Bft) W-SW 247 8,9 C 15,0 C
23.06.2012 03:21 14,9 C 67 % 1021,0 hPa 0,0 l/m 4,0 km/h (1 Bft) W 270 8,8 C 14,9 C
23.06.2012 03:26 14,9 C 67 % 1020,9 hPa 0,0 l/m 4,0 km/h (1 Bft) S-SW 202 8,8 C 14,9 C
23.06.2012 03:31 14,9 C 68 % 1020,9 hPa 0,0 l/m 5,8 km/h (2 Bft) SW 225 9,0 C 14,9 C
23.06.2012 03:36 14,9 C 68 % 1021,0 hPa 0,0 l/m 5,8 km/h (2 Bft) W-SW 247 9,0 C 14,9 C
23.06.2012 03:41 14,9 C 68 % 1021,1 hPa 0,0 l/m 9,4 km/h (2 Bft) W-SW 247 9,0 C 14,9 C
23.06.2012 03:46 14,9 C 68 % 1021,1 hPa 0,0 l/m 5,4 km/h (1 Bft) W-SW 247 9,0 C 14,9 C
23.06.2012 03:51 14,8 C 68 % 1021,0 hPa 0,0 l/m 7,6 km/h (2 Bft) W 270 9,0 C 14,8 C
23.06.2012 03:56 14,8 C 68 % 1021,0 hPa 0,0 l/m 7,9 km/h (2 Bft) SW 225 9,0 C 14,8 C
23.06.2012 04:01 14,6 C 68 % 1021,1 hPa 0,0 l/m 3,2 km/h (1 Bft) SW 225 8,8 C 14,6 C
23.06.2012 04:06 14,6 C 69 % 1021,1 hPa 0,0 l/m 3,2 km/h (1 Bft) SW 225 9,0 C 14,6 C
23.06.2012 04:11 14,5 C 69 % 1021,1 hPa 0,0 l/m 2,9 km/h (1 Bft) SW 225 8,9 C 14,5 C
23.06.2012 04:16 14,5 C 69 % 1021,2 hPa 0,0 l/m 3,6 km/h (1 Bft) W-SW 247 8,9 C 14,5 C
23.06.2012 04:21 14,4 C 69 % 1021,3 hPa 0,0 l/m 3,2 km/h (1 Bft) SW 225 8,8 C 14,4 C
23.06.2012 04:26 14,4 C 69 % 1021,4 hPa 0,0 l/m 0,0 km/h (0 Bft) W-SW 247 8,8 C 14,4 C
23.06.2012 04:31 14,4 C 70 % 1021,3 hPa 0,0 l/m 2,5 km/h (1 Bft) S-SW 202 9,0 C 14,4 C
23.06.2012 04:36 14,4 C 70 % 1021,3 hPa 0,0 l/m 2,2 km/h (1 Bft) S-SW 202 9,0 C 14,4 C
23.06.2012 04:41 14,3 C 70 % 1021,4 hPa 0,0 l/m 3,6 km/h (1 Bft) SW 225 8,9 C 14,3 C
23.06.2012 04:46 14,3 C 70 % 1021,4 hPa 0,0 l/m 3,6 km/h (1 Bft) S-SW 202 8,9 C 14,3 C
23.06.2012 04:51 14,3 C 70 % 1021,3 hPa 0,0 l/m 4,7 km/h (1 Bft) SW 225 8,9 C 14,3 C
23.06.2012 04:56 14,3 C 70 % 1021,3 hPa 0,0 l/m 5,0 km/h (1 Bft) S 180 8,9 C 14,3 C
23.06.2012 05:01 14,2 C 71 % 1021,4 hPa 0,0 l/m 9,0 km/h (2 Bft) S-SW 202 9,0 C 14,2 C
23.06.2012 05:06 14,2 C 71 % 1021,3 hPa 0,0 l/m 2,9 km/h (1 Bft) S 180 9,0 C 14,2 C
23.06.2012 05:11 14,2 C 71 % 1021,4 hPa 0,0 l/m 6,1 km/h (2 Bft) S-SW 202 9,0 C 14,2 C
23.06.2012 05:16 14,1 C 71 % 1021,4 hPa 0,0 l/m 7,2 km/h (2 Bft) S-SW 202 8,9 C 14,1 C
23.06.2012 05:21 14,1 C 71 % 1021,4 hPa 0,0 l/m 4,0 km/h (1 Bft) S 180 8,9 C 14,1 C
23.06.2012 05:26 14,1 C 71 % 1021,4 hPa 0,0 l/m 6,1 km/h (2 Bft) S-SW 202 8,9 C 14,1 C
23.06.2012 05:31 14,1 C 71 % 1021,5 hPa 0,0 l/m 3,6 km/h (1 Bft) S 180 8,9 C 14,1 C
23.06.2012 05:36 14,1 C 71 % 1021,5 hPa 0,0 l/m 3,6 km/h (1 Bft) S-SW 202 8,9 C 14,1 C
23.06.2012 05:41 14,2 C 71 % 1021,6 hPa 0,0 l/m 6,8 km/h (2 Bft) S-SW 202 9,0 C 14,2 C
23.06.2012 05:46 14,4 C 71 % 1021,5 hPa 0,0 l/m 4,0 km/h (1 Bft) S 180 9,2 C 14,4 C
23.06.2012 05:51 14,8 C 72 % 1021,5 hPa 0,0 l/m 4,0 km/h (1 Bft) S-SO 157 9,8 C 14,8 C
23.06.2012 05:56 15,3 C 72 % 1021,5 hPa 0,0 l/m 2,5 km/h (1 Bft) S 180 10,3 C 15,3 C
23.06.2012 06:01 15,9 C 70 % 1021,5 hPa 0,0 l/m 6,1 km/h (2 Bft) S 180 10,4 C 15,9 C
23.06.2012 06:06 16,6 C 68 % 1021,5 hPa 0,0 l/m 3,6 km/h (1 Bft) S-SO 157 10,7 C 16,6 C
23.06.2012 06:11 17,0 C 67 % 1021,7 hPa 0,0 l/m 1,1 km/h (1 Bft) S-SO 157 10,8 C 17,0 C
23.06.2012 06:16 17,3 C 66 % 1021,6 hPa 0,0 l/m 4,0 km/h (1 Bft) S 180 10,9 C 17,3 C
23.06.2012 06:21 17,7 C 65 % 1021,7 hPa 0,0 l/m 5,4 km/h (1 Bft) S 180 11,0 C 17,7 C
23.06.2012 06:26 17,9 C 64 % 1021,9 hPa 0,0 l/m 9,4 km/h (2 Bft) S 180 11,0 C 17,9 C
23.06.2012 06:31 17,8 C 63 % 1021,9 hPa 0,0 l/m 6,1 km/h (2 Bft) S-SO 157 10,7 C 17,8 C
23.06.2012 06:36 17,5 C 64 % 1022,0 hPa 0,0 l/m 4,7 km/h (1 Bft) S 180 10,6 C 17,5 C
23.06.2012 06:41 17,4 C 64 % 1021,8 hPa 0,0 l/m 4,7 km/h (1 Bft) S 180 10,5 C 17,4 C
23.06.2012 06:46 17,4 C 64 % 1021,9 hPa 0,0 l/m 2,5 km/h (1 Bft) O-SO 112 10,5 C 17,4 C
23.06.2012 06:51 17,3 C 64 % 1022,0 hPa 0,0 l/m 4,7 km/h (1 Bft) S-SW 202 10,4 C 17,3 C
23.06.2012 06:56 17,3 C 64 % 1021,9 hPa 0,0 l/m 6,1 km/h (2 Bft) S-SW 202 10,4 C 17,3 C
23.06.2012 07:01 17,4 C 64 % 1022,1 hPa 0,0 l/m 7,2 km/h (2 Bft) S-SO 157 10,5 C 17,4 C
23.06.2012 07:06 17,6 C 64 % 1022,1 hPa 0,0 l/m 8,3 km/h (2 Bft) W-SW 247 10,7 C 17,6 C
23.06.2012 07:11 17,8 C 64 % 1022,1 hPa 0,0 l/m 7,2 km/h (2 Bft) S 180 10,9 C 17,8 C
23.06.2012 07:16 17,9 C 64 % 1022,0 hPa 0,0 l/m 7,2 km/h (2 Bft) S 180 11,0 C 17,9 C
23.06.2012 07:21 18,1 C 63 % 1022,1 hPa 0,0 l/m 4,0 km/h (1 Bft) S 180 10,9 C 18,1 C
23.06.2012 07:26 18,3 C 63 % 1022,0 hPa 0,0 l/m 8,6 km/h (2 Bft) SW 225 11,1 C 18,3 C
23.06.2012 07:31 18,5 C 61 % 1022,0 hPa 0,0 l/m 8,6 km/h (2 Bft) S-SW 202 10,8 C 18,5 C
23.06.2012 07:36 18,5 C 61 % 1022,0 hPa 0,0 l/m 4,7 km/h (1 Bft) W-SW 247 10,8 C 18,5 C
23.06.2012 07:41 18,4 C 61 % 1022,0 hPa 0,0 l/m 5,4 km/h (1 Bft) W-SW 247 10,7 C 18,4 C
23.06.2012 07:46 18,6 C 61 % 1022,0 hPa 0,0 l/m 7,6 km/h (2 Bft) SW 225 10,9 C 18,6 C
23.06.2012 07:51 18,8 C 61 % 1022,0 hPa 0,0 l/m 13,0 km/h (3 Bft) S-SW 202 11,1 C 18,8 C
23.06.2012 07:56 18,8 C 60 % 1022,0 hPa 0,0 l/m 5,4 km/h (1 Bft) S-SW 202 10,9 C 18,8 C
23.06.2012 08:01 18,8 C 60 % 1022,0 hPa 0,0 l/m 7,2 km/h (2 Bft) S-SO 157 10,9 C 18,8 C
23.06.2012 08:06 18,5 C 60 % 1022,1 hPa 0,0 l/m 13,7 km/h (3 Bft) SW 225 10,6 C 18,5 C
23.06.2012 08:11 18,3 C 60 % 1022,2 hPa 0,0 l/m 10,1 km/h (2 Bft) S-SW 202 10,4 C 18,3 C
23.06.2012 08:16 18,4 C 61 % 1022,2 hPa 0,0 l/m 8,6 km/h (2 Bft) S 180 10,7 C 18,4 C
23.06.2012 08:21 18,6 C 60 % 1022,2 hPa 0,0 l/m 9,4 km/h (2 Bft) W-SW 247 10,7 C 18,6 C
23.06.2012 08:26 18,9 C 60 % 1022,2 hPa 0,0 l/m 13,0 km/h (3 Bft) S-SW 202 11,0 C 18,9 C
23.06.2012 08:31 19,1 C 59 % 1022,2 hPa 0,0 l/m 5,0 km/h (1 Bft) S-SW 202 10,9 C 19,1 C
23.06.2012 08:36 19,3 C 59 % 1022,2 hPa 0,0 l/m 6,8 km/h (2 Bft) W 270 11,1 C 19,3 C
23.06.2012 08:41 19,5 C 58 % 1022,1 hPa 0,0 l/m 9,4 km/h (2 Bft) W-SW 247 11,0 C 19,5 C
23.06.2012 08:46 19,6 C 57 % 1022,2 hPa 0,0 l/m 5,8 km/h (2 Bft) SW 225 10,8 C 19,6 C
23.06.2012 08:51 19,8 C 57 % 1022,2 hPa 0,0 l/m 7,2 km/h (2 Bft) W 270 11,0 C 19,8 C
23.06.2012 08:56 19,9 C 56 % 1022,2 hPa 0,0 l/m 7,6 km/h (2 Bft) S-SW 202 10,9 C 19,9 C
23.06.2012 09:01 20,0 C 56 % 1022,2 hPa 0,0 l/m 13,3 km/h (3 Bft) W 270 11,0 C 20,0 C
23.06.2012 09:06 20,1 C 54 % 1022,3 hPa 0,0 l/m 13,3 km/h (3 Bft) W 270 10,5 C 20,1 C
23.06.2012 09:11 20,1 C 54 % 1022,2 hPa 0,0 l/m 6,5 km/h (2 Bft) SW 225 10,5 C 20,1 C
23.06.2012 09:16 20,3 C 55 % 1022,2 hPa 0,0 l/m 18,0 km/h (3 Bft) SW 225 11,0 C 20,3 C
23.06.2012 09:21 20,4 C 54 % 1022,2 hPa 0,0 l/m 10,1 km/h (2 Bft) W 270 10,8 C 20,4 C
23.06.2012 09:26 20,4 C 53 % 1022,2 hPa 0,0 l/m 7,6 km/h (2 Bft) S 180 10,5 C 20,4 C
23.06.2012 09:31 20,4 C 52 % 1022,2 hPa 0,0 l/m 10,4 km/h (2 Bft) SW 225 10,2 C 20,4 C
23.06.2012 09:36 20,5 C 52 % 1022,2 hPa 0,0 l/m 17,3 km/h (3 Bft) W 270 10,3 C 20,5 C
23.06.2012 09:41 20,6 C 52 % 1022,2 hPa 0,0 l/m 21,2 km/h (4 Bft) W-SW 247 10,4 C 20,6 C
23.06.2012 09:46 20,7 C 52 % 1022,2 hPa 0,0 l/m 9,7 km/h (2 Bft) W-SW 247 10,5 C 20,7 C
23.06.2012 09:51 20,8 C 51 % 1022,2 hPa 0,0 l/m 22,7 km/h (4 Bft) W-SW 247 10,3 C 20,8 C
23.06.2012 09:56 20,8 C 51 % 1022,1 hPa 0,0 l/m 9,4 km/h (2 Bft) SW 225 10,3 C 20,8 C
23.06.2012 10:01 20,8 C 51 % 1022,1 hPa 0,0 l/m 24,8 km/h (4 Bft) S-SW 202 10,3 C 20,8 C
23.06.2012 10:06 20,9 C 50 % 1022,1 hPa 0,0 l/m 13,0 km/h (3 Bft) S-SW 202 10,1 C 20,9 C
23.06.2012 10:11 20,9 C 50 % 1022,2 hPa 0,0 l/m 24,5 km/h (4 Bft) W-SW 247 10,1 C 20,9 C
23.06.2012 10:16 20,9 C 51 % 1022,0 hPa 0,0 l/m 14,0 km/h (3 Bft) W-SW 247 10,4 C 20,9 C
23.06.2012 10:21 21,1 C 50 % 1022,0 hPa 0,0 l/m 31,7 km/h (5 Bft) W 270 10,3 C 21,1 C
23.06.2012 10:26 21,2 C 50 % 1022,0 hPa 0,0 l/m 23,0 km/h (4 Bft) W 270 10,4 C 21,2 C
23.06.2012 10:31 21,3 C 48 % 1021,9 hPa 0,0 l/m 13,3 km/h (3 Bft) S 180 9,8 C 21,3 C
23.06.2012 10:36 21,4 C 49 % 1021,9 hPa 0,0 l/m 28,1 km/h (4 Bft) SW 225 10,2 C 21,4 C
23.06.2012 10:41 21,4 C 49 % 1021,9 hPa 0,0 l/m 10,8 km/h (2 Bft) S 180 10,2 C 21,4 C
23.06.2012 10:46 21,5 C 48 % 1022,0 hPa 0,0 l/m 15,8 km/h (3 Bft) W-SW 247 10,0 C 21,5 C
23.06.2012 10:51 21,6 C 47 % 1022,0 hPa 0,0 l/m 15,1 km/h (3 Bft) SW 225 9,8 C 21,6 C
23.06.2012 10:56 21,8 C 48 % 1022,0 hPa 0,0 l/m 14,4 km/h (3 Bft) S-SW 202 10,3 C 21,8 C
23.06.2012 11:01 21,9 C 48 % 1021,9 hPa 0,0 l/m 13,7 km/h (3 Bft) W 270 10,4 C 21,9 C
23.06.2012 11:06 21,9 C 47 % 1022,0 hPa 0,0 l/m 17,6 km/h (3 Bft) W 270 10,1 C 21,9 C
23.06.2012 11:11 21,9 C 46 % 1022,0 hPa 0,0 l/m 18,4 km/h (3 Bft) W 270 9,7 C 21,9 C
23.06.2012 11:16 22,1 C 46 % 1022,0 hPa 0,0 l/m 8,6 km/h (2 Bft) W-SW 247 9,9 C 22,1 C
23.06.2012 11:21 22,2 C 46 % 1021,9 hPa 0,0 l/m 7,2 km/h (2 Bft) S 180 10,0 C 22,2 C
23.06.2012 11:26 20,3 C 78 % 1022,0 hPa 0,0 l/m 6,8 km/h (2 Bft) SO 135 16,3 C 20,3 C
23.06.2012 11:31 17,4 C 82 % 1021,9 hPa 0,0 l/m 18,4 km/h (3 Bft) W-NW 292 14,3 C 17,4 C
23.06.2012 11:36 17,0 C 85 % 1021,9 hPa 0,0 l/m 23,0 km/h (4 Bft) SW 225 14,5 C 17,0 C
23.06.2012 11:41 18,1 C 87 % 1022,0 hPa 0,0 l/m 28,8 km/h (4 Bft) SW 225 15,9 C 18,1 C
23.06.2012 11:46 18,9 C 87 % 1021,9 hPa 0,0 l/m 23,0 km/h (4 Bft) W-SW 247 16,7 C 18,9 C
23.06.2012 11:51 19,4 C 86 % 1021,8 hPa 0,0 l/m 11,5 km/h (2 Bft) SW 225 17,0 C 19,4 C
23.06.2012 11:56 19,8 C 85 % 1021,8 hPa 0,0 l/m 12,2 km/h (2 Bft) W 270 17,2 C 19,8 C
23.06.2012 12:01 19,9 C 81 % 1021,8 hPa 0,0 l/m 13,3 km/h (3 Bft) W-NW 292 16,5 C 19,9 C
23.06.2012 12:06 20,1 C 79 % 1021,7 hPa 0,0 l/m 20,9 km/h (4 Bft) W-SW 247 16,3 C 20,1 C
23.06.2012 12:11 20,1 C 76 % 1021,8 hPa 0,0 l/m 33,1 km/h (5 Bft) W-SW 247 15,7 C 20,1 C
23.06.2012 12:16 20,3 C 72 % 1021,6 hPa 0,0 l/m 10,1 km/h (2 Bft) SW 225 15,1 C 20,3 C
23.06.2012 12:21 20,2 C 72 % 1021,6 hPa 0,0 l/m 23,8 km/h (4 Bft) W-SW 247 15,0 C 20,2 C
23.06.2012 12:26 20,6 C 69 % 1021,7 hPa 0,0 l/m 18,0 km/h (3 Bft) SW 225 14,7 C 20,6 C
23.06.2012 12:31 20,8 C 67 % 1021,7 hPa 0,0 l/m 25,9 km/h (4 Bft) W-SW 247 14,4 C 20,8 C
23.06.2012 12:36 21,0 C 66 % 1021,6 hPa 0,0 l/m 14,8 km/h (3 Bft) SW 225 14,4 C 21,0 C
23.06.2012 12:41 21,3 C 63 % 1021,6 hPa 0,0 l/m 14,4 km/h (3 Bft) S-SW 202 14,0 C 21,3 C
23.06.2012 12:46 21,0 C 63 % 1021,9 hPa 0,0 l/m 16,6 km/h (3 Bft) SW 225 13,7 C 21,0 C
23.06.2012 12:51 20,1 C 68 % 1021,9 hPa 0,0 l/m 14,8 km/h (3 Bft) W 270 14,0 C 20,1 C
23.06.2012 12:56 18,1 C 72 % 1021,9 hPa 0,0 l/m 11,5 km/h (2 Bft) W-SW 247 13,0 C 18,1 C
23.06.2012 13:01 17,9 C 73 % 1022,2 hPa 0,0 l/m 16,2 km/h (3 Bft) W-SW 247 13,0 C 17,9 C
23.06.2012 13:06 18,3 C 71 % 1022,1 hPa 0,0 l/m 23,8 km/h (4 Bft) W-SW 247 12,9 C 18,3 C
23.06.2012 13:11 18,5 C 69 % 1022,2 hPa 0,0 l/m 7,9 km/h (2 Bft) W 270 12,7 C 18,5 C
23.06.2012 13:16 18,7 C 68 % 1022,3 hPa 0,0 l/m 25,2 km/h (4 Bft) W-SW 247 12,7 C 18,7 C
23.06.2012 13:21 18,9 C 66 % 1022,3 hPa 0,0 l/m 23,0 km/h (4 Bft) S 180 12,4 C 18,9 C
23.06.2012 13:26 19,1 C 64 % 1022,3 hPa 0,0 l/m 29,5 km/h (5 Bft) W-SW 247 12,1 C 19,1 C
23.06.2012 13:31 19,1 C 65 % 1022,4 hPa 0,0 l/m 14,4 km/h (3 Bft) W 270 12,4 C 19,1 C
23.06.2012 13:36 19,1 C 64 % 1022,4 hPa 0,0 l/m 18,7 km/h (3 Bft) S 180 12,1 C 19,1 C
23.06.2012 13:41 19,2 C 62 % 1022,4 hPa 0,0 l/m 11,9 km/h (2 Bft) SW 225 11,7 C 19,2 C
23.06.2012 13:46 19,1 C 61 % 1022,4 hPa 0,0 l/m 11,2 km/h (2 Bft) W-SW 247 11,4 C 19,1 C
23.06.2012 13:51 19,1 C 61 % 1022,4 hPa 0,0 l/m 11,2 km/h (2 Bft) SO 135 11,4 C 19,1 C
23.06.2012 13:56 19,1 C 61 % 1022,4 hPa 0,0 l/m 8,6 km/h (2 Bft) W-SW 247 11,4 C 19,1 C
23.06.2012 14:01 19,1 C 61 % 1022,4 hPa 0,0 l/m 8,6 km/h (2 Bft) SW 225 11,4 C 19,1 C
23.06.2012 14:06 19,2 C 61 % 1022,4 hPa 0,0 l/m 17,3 km/h (3 Bft) W 270 11,5 C 19,2 C
23.06.2012 14:11 19,1 C 60 % 1022,3 hPa 0,0 l/m 19,4 km/h (3 Bft) SW 225 11,1 C 19,1 C
23.06.2012 14:16 19,2 C 61 % 1022,5 hPa 0,0 l/m 19,1 km/h (3 Bft) W 270 11,5 C 19,2 C
23.06.2012 14:21 19,2 C 60 % 1022,3 hPa 0,0 l/m 5,8 km/h (2 Bft) W 270 11,2 C 19,2 C
23.06.2012 14:26 19,5 C 60 % 1022,2 hPa 0,0 l/m 6,1 km/h (2 Bft) W 270 11,5 C 19,5 C
23.06.2012 14:31 19,8 C 59 % 1022,3 hPa 0,0 l/m 16,6 km/h (3 Bft) W-SW 247 11,6 C 19,8 C
23.06.2012 14:36 20,0 C 59 % 1022,2 hPa 0,0 l/m 5,4 km/h (1 Bft) SW 225 11,7 C 20,0 C
23.06.2012 14:41 20,2 C 58 % 1022,2 hPa 0,0 l/m 13,7 km/h (3 Bft) SW 225 11,7 C 20,2 C
23.06.2012 14:46 20,3 C 57 % 1022,2 hPa 0,0 l/m 10,8 km/h (2 Bft) W-SW 247 11,5 C 20,3 C
23.06.2012 14:51 20,4 C 57 % 1022,2 hPa 0,0 l/m 13,3 km/h (3 Bft) SW 225 11,6 C 20,4 C
23.06.2012 14:56 20,5 C 57 % 1022,1 hPa 0,0 l/m 10,4 km/h (2 Bft) W 270 11,7 C 20,5 C
23.06.2012 15:01 20,6 C 56 % 1022,1 hPa 0,0 l/m 28,4 km/h (4 Bft) W 270 11,5 C 20,6 C
23.06.2012 15:06 20,8 C 55 % 1022,1 hPa 0,0 l/m 22,7 km/h (4 Bft) SW 225 11,4 C 20,8 C
23.06.2012 15:11 21,0 C 54 % 1022,1 hPa 0,0 l/m 14,4 km/h (3 Bft) W 270 11,3 C 21,0 C
23.06.2012 15:16 21,2 C 54 % 1022,0 hPa 0,0 l/m 8,3 km/h (2 Bft) S-SW 202 11,5 C 21,2 C
23.06.2012 15:21 21,2 C 53 % 1022,0 hPa 0,0 l/m 8,6 km/h (2 Bft) W 270 11,2 C 21,2 C
23.06.2012 15:26 21,2 C 53 % 1022,0 hPa 0,0 l/m 25,6 km/h (4 Bft) W-SW 247 11,2 C 21,2 C
23.06.2012 15:31 21,1 C 52 % 1022,1 hPa 0,0 l/m 6,1 km/h (2 Bft) W-SW 247 10,9 C 21,1 C
23.06.2012 15:36 21,1 C 52 % 1021,9 hPa 0,0 l/m 11,2 km/h (2 Bft) W-SW 247 10,9 C 21,1 C
23.06.2012 15:41 21,3 C 53 % 1022,1 hPa 0,0 l/m 11,2 km/h (2 Bft) W 270 11,3 C 21,3 C
23.06.2012 15:46 21,3 C 52 % 1022,1 hPa 0,0 l/m 10,4 km/h (2 Bft) S-SW 202 11,0 C 21,3 C
23.06.2012 15:51 21,3 C 52 % 1022,0 hPa 0,0 l/m 18,4 km/h (3 Bft) W-NW 292 11,0 C 21,3 C
23.06.2012 15:56 21,5 C 52 % 1021,9 hPa 0,0 l/m 13,7 km/h (3 Bft) SW 225 11,2 C 21,5 C
23.06.2012 16:01 21,6 C 50 % 1021,8 hPa 0,0 l/m 14,8 km/h (3 Bft) W 270 10,7 C 21,6 C
23.06.2012 16:06 21,8 C 51 % 1021,9 hPa 0,0 l/m 7,6 km/h (2 Bft) W-SW 247 11,2 C 21,8 C
23.06.2012 16:11 22,1 C 50 % 1021,8 hPa 0,0 l/m 10,4 km/h (2 Bft) W-SW 247 11,2 C 22,1 C
23.06.2012 16:16 22,4 C 48 % 1021,8 hPa 0,0 l/m 15,1 km/h (3 Bft) W 270 10,8 C 22,4 C
23.06.2012 16:21 22,6 C 47 % 1021,7 hPa 0,0 l/m 18,7 km/h (3 Bft) SW 225 10,7 C 22,6 C
23.06.2012 16:26 22,5 C 46 % 1021,8 hPa 0,0 l/m 19,1 km/h (3 Bft) SW 225 10,3 C 22,5 C
23.06.2012 16:31 22,4 C 45 % 1021,6 hPa 0,0 l/m 9,7 km/h (2 Bft) W-NW 292 9,9 C 22,4 C
23.06.2012 16:36 22,3 C 46 % 1021,8 hPa 0,0 l/m 11,9 km/h (2 Bft) W-SW 247 10,1 C 22,3 C
23.06.2012 16:41 22,3 C 46 % 1021,6 hPa 0,0 l/m 14,8 km/h (3 Bft) W 270 10,1 C 22,3 C
23.06.2012 16:46 22,4 C 45 % 1021,7 hPa 0,0 l/m 14,4 km/h (3 Bft) S-SW 202 9,9 C 22,4 C
23.06.2012 16:51 22,3 C 45 % 1021,7 hPa 0,0 l/m 7,2 km/h (2 Bft) W 270 9,8 C 22,3 C
23.06.2012 16:56 22,3 C 46 % 1021,7 hPa 0,0 l/m 19,1 km/h (3 Bft) S 180 10,1 C 22,3 C
23.06.2012 17:01 22,1 C 46 % 1021,7 hPa 0,0 l/m 14,8 km/h (3 Bft) S-SO 157 9,9 C 22,1 C
23.06.2012 17:06 21,9 C 46 % 1021,6 hPa 0,0 l/m 10,4 km/h (2 Bft) SW 225 9,7 C 21,9 C
23.06.2012 17:11 21,8 C 47 % 1021,5 hPa 0,0 l/m 7,2 km/h (2 Bft) W-SW 247 10,0 C 21,8 C
23.06.2012 17:16 21,9 C 47 % 1021,7 hPa 0,0 l/m 11,9 km/h (2 Bft) W 270 10,1 C 21,9 C
23.06.2012 17:21 21,8 C 47 % 1021,6 hPa 0,0 l/m 17,6 km/h (3 Bft) W-SW 247 10,0 C 21,8 C
23.06.2012 17:26 21,8 C 46 % 1021,6 hPa 0,0 l/m 13,0 km/h (3 Bft) W-SW 247 9,7 C 21,8 C
23.06.2012 17:31 21,7 C 45 % 1021,6 hPa 0,0 l/m 8,6 km/h (2 Bft) W-SW 247 9,2 C 21,7 C
23.06.2012 17:36 21,6 C 47 % 1021,5 hPa 0,0 l/m 18,4 km/h (3 Bft) SW 225 9,8 C 21,6 C
23.06.2012 17:41 21,5 C 47 % 1021,6 hPa 0,0 l/m 2,9 km/h (1 Bft) W-SW 247 9,7 C 21,5 C
23.06.2012 17:46 21,4 C 47 % 1021,5 hPa 0,0 l/m 5,0 km/h (1 Bft) W 270 9,6 C 21,4 C
23.06.2012 17:51 21,3 C 47 % 1021,5 hPa 0,0 l/m 5,0 km/h (1 Bft) W-SW 247 9,5 C 21,3 C
23.06.2012 17:56 21,3 C 48 % 1021,5 hPa 0,0 l/m 5,4 km/h (1 Bft) W-NW 292 9,8 C 21,3 C
23.06.2012 18:01 21,2 C 47 % 1021,5 hPa 0,0 l/m 14,4 km/h (3 Bft) SW 225 9,4 C 21,2 C
23.06.2012 18:06 21,0 C 47 % 1021,5 hPa 0,0 l/m 14,8 km/h (3 Bft) W-SW 247 9,3 C 21,0 C
23.06.2012 18:11 20,9 C 48 % 1021,5 hPa 0,0 l/m 11,9 km/h (2 Bft) S-SW 202 9,5 C 20,9 C
23.06.2012 18:16 21,0 C 48 % 1021,7 hPa 0,0 l/m 9,4 km/h (2 Bft) W-SW 247 9,6 C 21,0 C
23.06.2012 18:21 21,1 C 49 % 1021,7 hPa 0,0 l/m 7,2 km/h (2 Bft) W-NW 292 10,0 C 21,1 C
23.06.2012 18:26 21,3 C 49 % 1021,7 hPa 0,0 l/m 7,6 km/h (2 Bft) W 270 10,1 C 21,3 C
23.06.2012 18:31 21,6 C 49 % 1021,6 hPa 0,0 l/m 13,7 km/h (3 Bft) W-SW 247 10,4 C 21,6 C
23.06.2012 18:36 22,1 C 48 % 1021,6 hPa 0,0 l/m 1,8 km/h (1 Bft) W 270 10,6 C 22,1 C
23.06.2012 18:41 22,3 C 48 % 1021,7 hPa 0,0 l/m 13,3 km/h (3 Bft) NW 315 10,8 C 22,3 C
23.06.2012 18:46 22,4 C 47 % 1021,6 hPa 0,0 l/m 6,8 km/h (2 Bft) W-NW 292 10,5 C 22,4 C
23.06.2012 18:51 22,6 C 47 % 1021,6 hPa 0,0 l/m 4,3 km/h (1 Bft) SW 225 10,7 C 22,6 C
23.06.2012 18:56 22,4 C 46 % 1021,7 hPa 0,0 l/m 4,7 km/h (1 Bft) W-SW 247 10,2 C 22,4 C
23.06.2012 19:01 22,2 C 47 % 1021,6 hPa 0,0 l/m 4,0 km/h (1 Bft) W-NW 292 10,3 C 22,2 C
23.06.2012 19:06 22,2 C 47 % 1021,7 hPa 0,0 l/m 3,2 km/h (1 Bft) W 270 10,3 C 22,2 C
23.06.2012 19:11 22,3 C 47 % 1021,7 hPa 0,0 l/m 12,2 km/h (2 Bft) W-SW 247 10,4 C 22,3 C
23.06.2012 19:16 22,4 C 47 % 1021,6 hPa 0,0 l/m 18,4 km/h (3 Bft) SW 225 10,5 C 22,4 C
23.06.2012 19:21 22,3 C 46 % 1021,7 hPa 0,0 l/m 7,6 km/h (2 Bft) W 270 10,1 C 22,3 C
23.06.2012 19:26 22,3 C 46 % 1021,7 hPa 0,0 l/m 3,6 km/h (1 Bft) W 270 10,1 C 22,3 C
23.06.2012 19:31 22,2 C 46 % 1021,8 hPa 0,0 l/m 4,7 km/h (1 Bft) W-NW 292 10,0 C 22,2 C
23.06.2012 19:36 22,1 C 45 % 1021,8 hPa 0,0 l/m 6,8 km/h (2 Bft) W 270 9,6 C 22,1 C
23.06.2012 19:41 22,0 C 46 % 1021,8 hPa 0,0 l/m 12,6 km/h (3 Bft) W 270 9,8 C 22,0 C
23.06.2012 19:46 22,1 C 46 % 1021,8 hPa 0,0 l/m 8,3 km/h (2 Bft) W 270 9,9 C 22,1 C
23.06.2012 19:51 22,1 C 46 % 1021,9 hPa 0,0 l/m 6,1 km/h (2 Bft) W 270 9,9 C 22,1 C
23.06.2012 19:56 21,9 C 45 % 1021,9 hPa 0,0 l/m 3,6 km/h (1 Bft) W-NW 292 9,4 C 21,9 C
23.06.2012 20:01 21,8 C 46 % 1021,8 hPa 0,0 l/m 8,6 km/h (2 Bft) W 270 9,7 C 21,8 C
23.06.2012 20:06 21,7 C 46 % 1021,8 hPa 0,0 l/m 14,4 km/h (3 Bft) NW 315 9,6 C 21,7 C
23.06.2012 20:11 21,6 C 46 % 1021,8 hPa 0,0 l/m 3,2 km/h (1 Bft) W 270 9,5 C 21,6 C
23.06.2012 20:16 21,4 C 46 % 1021,8 hPa 0,0 l/m 1,8 km/h (1 Bft) W-SW 247 9,3 C 21,4 C
23.06.2012 20:21 21,3 C 46 % 1021,9 hPa 0,0 l/m 5,8 km/h (2 Bft) W 270 9,2 C 21,3 C
23.06.2012 20:26 21,2 C 47 % 1021,8 hPa 0,0 l/m 4,0 km/h (1 Bft) W-NW 292 9,4 C 21,2 C
23.06.2012 20:31 21,1 C 47 % 1021,8 hPa 0,0 l/m 4,7 km/h (1 Bft) W 270 9,3 C 21,1 C
23.06.2012 20:36 20,9 C 47 % 1021,9 hPa 0,0 l/m 3,6 km/h (1 Bft) W-NW 292 9,2 C 20,9 C
23.06.2012 20:41 20,7 C 48 % 1022,0 hPa 0,0 l/m 2,5 km/h (1 Bft) W 270 9,3 C 20,7 C
23.06.2012 20:46 20,5 C 48 % 1021,9 hPa 0,0 l/m 5,8 km/h (2 Bft) W-SW 247 9,1 C 20,5 C
23.06.2012 20:51 20,3 C 48 % 1021,9 hPa 0,0 l/m 8,3 km/h (2 Bft) W 270 8,9 C 20,3 C
23.06.2012 20:56 20,1 C 49 % 1021,9 hPa 0,0 l/m 2,9 km/h (1 Bft) W 270 9,0 C 20,1 C
23.06.2012 21:01 19,9 C 50 % 1022,0 hPa 0,0 l/m 4,3 km/h (1 Bft) W-SW 247 9,2 C 19,9 C
23.06.2012 21:06 19,9 C 50 % 1022,0 hPa 0,0 l/m 1,4 km/h (1 Bft) W 270 9,2 C 19,9 C
23.06.2012 21:11 19,8 C 51 % 1022,0 hPa 0,0 l/m 2,5 km/h (1 Bft) W 270 9,4 C 19,8 C
23.06.2012 21:16 19,6 C 51 % 1022,1 hPa 0,0 l/m 4,0 km/h (1 Bft) SW 225 9,2 C 19,6 C
23.06.2012 21:21 19,5 C 51 % 1022,1 hPa 0,0 l/m 2,2 km/h (1 Bft) W 270 9,1 C 19,5 C
23.06.2012 21:26 19,4 C 52 % 1022,1 hPa 0,0 l/m 1,8 km/h (1 Bft) W 270 9,3 C 19,4 C
23.06.2012 21:31 19,3 C 53 % 1022,2 hPa 0,0 l/m 0,0 km/h (0 Bft) W-SW 247 9,5 C 19,3 C
23.06.2012 21:36 19,2 C 53 % 1022,3 hPa 0,0 l/m 2,5 km/h (1 Bft) W 270 9,4 C 19,2 C
23.06.2012 21:41 19,0 C 53 % 1022,2 hPa 0,0 l/m 1,8 km/h (1 Bft) W 270 9,2 C 19,0 C
23.06.2012 21:46 18,9 C 53 % 1022,3 hPa 0,0 l/m 3,2 km/h (1 Bft) W 270 9,1 C 18,9 C
23.06.2012 21:51 18,8 C 54 % 1022,2 hPa 0,0 l/m 1,4 km/h (1 Bft) W 270 9,3 C 18,8 C
23.06.2012 21:56 18,7 C 54 % 1022,4 hPa 0,0 l/m 4,0 km/h (1 Bft) SW 225 9,2 C 18,7 C
23.06.2012 22:01 18,6 C 54 % 1022,3 hPa 0,0 l/m 1,8 km/h (1 Bft) W-SW 247 9,1 C 18,6 C
23.06.2012 22:06 18,5 C 54 % 1022,5 hPa 0,0 l/m 4,0 km/h (1 Bft) W-SW 247 9,0 C 18,5 C
23.06.2012 22:11 18,4 C 55 % 1022,5 hPa 0,0 l/m 2,5 km/h (1 Bft) W 270 9,2 C 18,4 C
23.06.2012 22:16 18,3 C 55 % 1022,6 hPa 0,0 l/m 3,2 km/h (1 Bft) W-NW 292 9,1 C 18,3 C
23.06.2012 22:21 18,3 C 55 % 1022,6 hPa 0,0 l/m 3,6 km/h (1 Bft) W-SW 247 9,1 C 18,3 C
23.06.2012 22:26 18,2 C 56 % 1022,4 hPa 0,0 l/m 3,2 km/h (1 Bft) W-SW 247 9,3 C 18,2 C
23.06.2012 22:31 18,1 C 56 % 1022,5 hPa 0,0 l/m 0,0 km/h (0 Bft) W 270 9,2 C 18,1 C
23.06.2012 22:36 17,9 C 56 % 1022,5 hPa 0,0 l/m 1,4 km/h (1 Bft) W-SW 247 9,0 C 17,9 C
23.06.2012 22:41 17,8 C 57 % 1022,3 hPa 0,0 l/m 0,0 km/h (0 Bft) W 270 9,2 C 17,8 C
23.06.2012 22:46 17,6 C 57 % 1022,4 hPa 0,0 l/m 0,0 km/h (0 Bft) W 270 9,0 C 17,6 C
23.06.2012 22:51 17,4 C 57 % 1022,5 hPa 0,0 l/m 0,0 km/h (0 Bft) W 270 8,8 C 17,4 C
23.06.2012 22:56 17,3 C 58 % 1022,6 hPa 0,0 l/m 0,0 km/h (0 Bft) W 270 9,0 C 17,3 C
23.06.2012 23:01 17,1 C 59 % 1022,6 hPa 0,0 l/m 0,0 km/h (0 Bft) W 270 9,0 C 17,1 C
23.06.2012 23:06 16,9 C 61 % 1022,5 hPa 0,0 l/m 0,0 km/h (0 Bft) W 270 9,3 C 16,9 C
23.06.2012 23:11 16,9 C 61 % 1022,5 hPa 0,0 l/m 0,0 km/h (0 Bft) W-SW 247 9,3 C 16,9 C
23.06.2012 23:16 16,8 C 61 % 1022,3 hPa 0,0 l/m 0,0 km/h (0 Bft) W-SW 247 9,2 C 16,8 C
23.06.2012 23:21 16,6 C 62 % 1022,5 hPa 0,0 l/m 0,0 km/h (0 Bft) W-SW 247 9,3 C 16,6 C
23.06.2012 23:26 16,5 C 62 % 1022,4 hPa 0,0 l/m 0,0 km/h (0 Bft) W-SW 247 9,2 C 16,5 C
23.06.2012 23:31 16,4 C 62 % 1022,3 hPa 0,0 l/m 0,0 km/h (0 Bft) W-SW 247 9,1 C 16,4 C
23.06.2012 23:36 16,3 C 62 % 1022,5 hPa 0,0 l/m 0,0 km/h (0 Bft) W-SW 247 9,0 C 16,3 C
23.06.2012 23:41 16,2 C 63 % 1022,3 hPa 0,0 l/m 0,0 km/h (0 Bft) W-SW 247 9,1 C 16,2 C
23.06.2012 23:46 16,1 C 63 % 1022,3 hPa 0,0 l/m 0,0 km/h (0 Bft) W-SW 247 9,1 C 16,1 C
23.06.2012 23:51 15,9 C 63 % 1022,3 hPa 0,0 l/m 0,0 km/h (0 Bft) W-SW 247 8,9 C 15,9 C
23.06.2012 23:56 15,9 C 64 % 1022,2 hPa 0,0 l/m 0,0 km/h (0 Bft) SW 225 9,1 C 15,9 C
_ Min-Zeit 05:16 16:31 00:06 - 00:11 - - 04:01 05:16
Minimum _ 14,1 C 45 % 1020,2 hPa - 0,0 km/h (0 Bft) - - 8,8 C 14,1 C
_ Max-Zeit 16:21 11:41 22:16 00:01 12:11 - - 11:56 16:21
Maximum _ 22,6 C 87 % 1022,6 hPa 0,0 l/m 33,1 km/h
W-SW (5 Bft)
- - 17,2 C 22,6 C
Durchschnitt _ 18,8 C 58 % 1021,7 hPa #0,0 l/m 8,7 km/h (2 Bft) W-SW - 10,3 C 18,8 C
(c) by David Heller